sensor_id;sensor_type;location;lat;lon;timestamp;P1;durP1;ratioP1;P2;durP2;ratioP2
4986;SDS011;12674;51.500;7.552;2022-11-15T00:00:35;14.00;;;6.87;;
4986;SDS011;12674;51.500;7.552;2022-11-15T00:02:57;11.43;;;5.60;;
4986;SDS011;12674;51.500;7.552;2022-11-15T00:05:19;11.20;;;6.30;;
4986;SDS011;12674;51.500;7.552;2022-11-15T00:07:40;10.17;;;5.63;;
4986;SDS011;12674;51.500;7.552;2022-11-15T00:10:15;8.23;;;5.37;;
4986;SDS011;12674;51.500;7.552;2022-11-15T00:12:37;7.87;;;5.83;;
4986;SDS011;12674;51.500;7.552;2022-11-15T00:15:00;10.80;;;5.90;;
4986;SDS011;12674;51.500;7.552;2022-11-15T00:17:21;12.10;;;5.50;;
4986;SDS011;12674;51.500;7.552;2022-11-15T00:19:43;7.90;;;5.73;;
4986;SDS011;12674;51.500;7.552;2022-11-15T00:22:05;14.37;;;6.50;;
4986;SDS011;12674;51.500;7.552;2022-11-15T00:24:27;7.67;;;5.90;;
4986;SDS011;12674;51.500;7.552;2022-11-15T00:26:49;10.43;;;5.77;;
4986;SDS011;12674;51.500;7.552;2022-11-15T00:29:11;15.33;;;6.00;;
4986;SDS011;12674;51.500;7.552;2022-11-15T00:31:34;7.33;;;5.67;;
4986;SDS011;12674;51.500;7.552;2022-11-15T00:33:56;9.73;;;5.50;;
4986;SDS011;12674;51.500;7.552;2022-11-15T00:36:18;12.40;;;6.20;;
4986;SDS011;12674;51.500;7.552;2022-11-15T00:38:40;10.10;;;6.10;;
4986;SDS011;12674;51.500;7.552;2022-11-15T00:41:02;8.83;;;5.50;;
4986;SDS011;12674;51.500;7.552;2022-11-15T00:43:29;9.00;;;6.43;;
4986;SDS011;12674;51.500;7.552;2022-11-15T00:45:51;18.70;;;5.73;;
4986;SDS011;12674;51.500;7.552;2022-11-15T00:48:14;10.13;;;5.60;;
4986;SDS011;12674;51.500;7.552;2022-11-15T00:50:36;9.60;;;5.30;;
4986;SDS011;12674;51.500;7.552;2022-11-15T00:52:57;7.00;;;5.60;;
4986;SDS011;12674;51.500;7.552;2022-11-15T00:55:19;7.97;;;5.30;;
4986;SDS011;12674;51.500;7.552;2022-11-15T00:57:41;10.77;;;5.77;;
4986;SDS011;12674;51.500;7.552;2022-11-15T01:00:03;9.60;;;5.47;;
4986;SDS011;12674;51.500;7.552;2022-11-15T01:02:25;8.80;;;5.40;;
4986;SDS011;12674;51.500;7.552;2022-11-15T01:04:49;11.30;;;5.30;;
4986;SDS011;12674;51.500;7.552;2022-11-15T01:07:10;9.67;;;5.60;;
4986;SDS011;12674;51.500;7.552;2022-11-15T01:09:32;7.90;;;5.60;;
4986;SDS011;12674;51.500;7.552;2022-11-15T01:11:54;11.07;;;5.57;;
4986;SDS011;12674;51.500;7.552;2022-11-15T01:14:15;7.50;;;5.00;;
4986;SDS011;12674;51.500;7.552;2022-11-15T01:16:44;10.13;;;5.80;;
4986;SDS011;12674;51.500;7.552;2022-11-15T01:19:05;12.63;;;5.90;;
4986;SDS011;12674;51.500;7.552;2022-11-15T01:21:28;7.13;;;5.23;;
4986;SDS011;12674;51.500;7.552;2022-11-15T01:23:52;7.47;;;6.00;;
4986;SDS011;12674;51.500;7.552;2022-11-15T01:26:14;11.30;;;6.23;;
4986;SDS011;12674;51.500;7.552;2022-11-15T01:28:36;12.93;;;5.70;;
4986;SDS011;12674;51.500;7.552;2022-11-15T01:30:59;13.57;;;6.03;;
4986;SDS011;12674;51.500;7.552;2022-11-15T01:33:21;8.67;;;5.93;;
4986;SDS011;12674;51.500;7.552;2022-11-15T01:35:43;10.07;;;5.90;;
4986;SDS011;12674;51.500;7.552;2022-11-15T01:38:06;8.20;;;5.50;;
4986;SDS011;12674;51.500;7.552;2022-11-15T01:40:27;9.17;;;5.50;;
4986;SDS011;12674;51.500;7.552;2022-11-15T01:42:48;7.07;;;4.73;;
4986;SDS011;12674;51.500;7.552;2022-11-15T01:45:11;7.53;;;5.60;;
4986;SDS011;12674;51.500;7.552;2022-11-15T01:47:36;9.63;;;5.77;;
4986;SDS011;12674;51.500;7.552;2022-11-15T01:49:59;6.60;;;5.90;;
4986;SDS011;12674;51.500;7.552;2022-11-15T01:52:22;10.67;;;5.57;;
4986;SDS011;12674;51.500;7.552;2022-11-15T01:54:47;11.23;;;5.17;;
4986;SDS011;12674;51.500;7.552;2022-11-15T01:57:13;9.63;;;5.77;;
4986;SDS011;12674;51.500;7.552;2022-11-15T01:59:34;7.90;;;5.20;;
4986;SDS011;12674;51.500;7.552;2022-11-15T02:01:56;8.67;;;5.43;;
4986;SDS011;12674;51.500;7.552;2022-11-15T02:04:19;8.47;;;5.50;;
4986;SDS011;12674;51.500;7.552;2022-11-15T02:06:43;9.03;;;6.37;;
4986;SDS011;12674;51.500;7.552;2022-11-15T02:09:05;8.30;;;5.33;;
4986;SDS011;12674;51.500;7.552;2022-11-15T02:11:29;10.77;;;5.60;;
4986;SDS011;12674;51.500;7.552;2022-11-15T02:13:50;8.93;;;6.03;;
4986;SDS011;12674;51.500;7.552;2022-11-15T02:16:15;7.60;;;5.67;;
4986;SDS011;12674;51.500;7.552;2022-11-15T02:18:40;9.90;;;6.80;;
4986;SDS011;12674;51.500;7.552;2022-11-15T02:21:10;10.80;;;6.60;;
4986;SDS011;12674;51.500;7.552;2022-11-15T02:23:54;9.40;;;5.40;;
4986;SDS011;12674;51.500;7.552;2022-11-15T02:26:30;13.20;;;6.60;;
4986;SDS011;12674;51.500;7.552;2022-11-15T02:29:19;10.70;;;6.10;;
4986;SDS011;12674;51.500;7.552;2022-11-15T02:31:48;8.83;;;5.10;;
4986;SDS011;12674;51.500;7.552;2022-11-15T02:34:16;11.50;;;6.20;;
4986;SDS011;12674;51.500;7.552;2022-11-15T02:36:41;9.33;;;5.77;;
4986;SDS011;12674;51.500;7.552;2022-11-15T02:39:07;8.87;;;6.30;;
4986;SDS011;12674;51.500;7.552;2022-11-15T02:41:34;14.00;;;6.30;;
4986;SDS011;12674;51.500;7.552;2022-11-15T02:44:00;9.10;;;6.63;;
4986;SDS011;12674;51.500;7.552;2022-11-15T02:46:24;9.73;;;6.20;;
4986;SDS011;12674;51.500;7.552;2022-11-15T02:49:04;8.33;;;4.93;;
4986;SDS011;12674;51.500;7.552;2022-11-15T02:51:26;9.93;;;5.87;;
4986;SDS011;12674;51.500;7.552;2022-11-15T02:53:47;13.27;;;6.10;;
4986;SDS011;12674;51.500;7.552;2022-11-15T02:56:09;9.77;;;6.10;;
4986;SDS011;12674;51.500;7.552;2022-11-15T03:01:29;11.30;;;6.90;;
4986;SDS011;12674;51.500;7.552;2022-11-15T03:03:59;11.00;;;5.97;;
4986;SDS011;12674;51.500;7.552;2022-11-15T03:06:31;13.37;;;6.87;;
4986;SDS011;12674;51.500;7.552;2022-11-15T03:09:01;9.60;;;6.07;;
4986;SDS011;12674;51.500;7.552;2022-11-15T03:11:25;9.87;;;6.80;;
4986;SDS011;12674;51.500;7.552;2022-11-15T03:13:48;9.80;;;6.20;;
4986;SDS011;12674;51.500;7.552;2022-11-15T03:16:15;14.57;;;6.83;;
4986;SDS011;12674;51.500;7.552;2022-11-15T03:18:40;10.97;;;6.37;;
4986;SDS011;12674;51.500;7.552;2022-11-15T03:21:05;9.73;;;5.90;;
4986;SDS011;12674;51.500;7.552;2022-11-15T03:23:28;10.03;;;6.53;;
4986;SDS011;12674;51.500;7.552;2022-11-15T03:25:52;8.97;;;5.90;;
4986;SDS011;12674;51.500;7.552;2022-11-15T03:28:16;6.90;;;5.57;;
4986;SDS011;12674;51.500;7.552;2022-11-15T03:30:39;8.73;;;5.73;;
4986;SDS011;12674;51.500;7.552;2022-11-15T03:33:01;8.07;;;5.93;;
4986;SDS011;12674;51.500;7.552;2022-11-15T03:35:25;11.90;;;5.53;;
4986;SDS011;12674;51.500;7.552;2022-11-15T03:37:51;6.80;;;5.63;;
4986;SDS011;12674;51.500;7.552;2022-11-15T03:40:15;8.60;;;5.03;;
4986;SDS011;12674;51.500;7.552;2022-11-15T03:42:38;10.67;;;5.70;;
4986;SDS011;12674;51.500;7.552;2022-11-15T03:45:07;13.00;;;4.97;;
4986;SDS011;12674;51.500;7.552;2022-11-15T03:47:32;6.40;;;5.00;;
4986;SDS011;12674;51.500;7.552;2022-11-15T03:49:57;10.70;;;4.87;;
4986;SDS011;12674;51.500;7.552;2022-11-15T03:52:21;8.80;;;4.97;;
4986;SDS011;12674;51.500;7.552;2022-11-15T03:54:48;8.77;;;4.77;;
4986;SDS011;12674;51.500;7.552;2022-11-15T03:57:11;5.87;;;4.50;;
4986;SDS011;12674;51.500;7.552;2022-11-15T03:59:33;9.50;;;4.80;;
4986;SDS011;12674;51.500;7.552;2022-11-15T04:01:54;5.60;;;4.27;;
4986;SDS011;12674;51.500;7.552;2022-11-15T04:04:16;8.13;;;5.30;;
4986;SDS011;12674;51.500;7.552;2022-11-15T04:06:37;6.57;;;4.70;;
4986;SDS011;12674;51.500;7.552;2022-11-15T04:08:59;5.10;;;4.00;;
4986;SDS011;12674;51.500;7.552;2022-11-15T04:11:21;5.53;;;4.17;;
4986;SDS011;12674;51.500;7.552;2022-11-15T04:13:42;10.30;;;4.93;;
4986;SDS011;12674;51.500;7.552;2022-11-15T04:16:04;5.00;;;4.33;;
4986;SDS011;12674;51.500;7.552;2022-11-15T04:18:26;4.63;;;4.00;;
4986;SDS011;12674;51.500;7.552;2022-11-15T04:20:48;6.97;;;5.00;;
4986;SDS011;12674;51.500;7.552;2022-11-15T04:23:27;6.20;;;4.47;;
4986;SDS011;12674;51.500;7.552;2022-11-15T04:26:07;9.43;;;4.30;;
4986;SDS011;12674;51.500;7.552;2022-11-15T04:28:32;8.67;;;4.80;;
4986;SDS011;12674;51.500;7.552;2022-11-15T04:30:54;7.80;;;5.10;;
4986;SDS011;12674;51.500;7.552;2022-11-15T04:33:16;9.07;;;4.87;;
4986;SDS011;12674;51.500;7.552;2022-11-15T04:35:37;8.90;;;4.80;;
4986;SDS011;12674;51.500;7.552;2022-11-15T04:37:59;5.10;;;4.60;;
4986;SDS011;12674;51.500;7.552;2022-11-15T04:40:20;9.40;;;4.87;;
4986;SDS011;12674;51.500;7.552;2022-11-15T04:42:42;5.60;;;4.60;;
4986;SDS011;12674;51.500;7.552;2022-11-15T04:45:05;8.63;;;4.27;;
4986;SDS011;12674;51.500;7.552;2022-11-15T04:47:28;6.07;;;4.10;;
4986;SDS011;12674;51.500;7.552;2022-11-15T04:49:50;6.10;;;3.80;;
4986;SDS011;12674;51.500;7.552;2022-11-15T04:52:11;8.80;;;5.17;;
4986;SDS011;12674;51.500;7.552;2022-11-15T04:54:33;4.47;;;4.07;;
4986;SDS011;12674;51.500;7.552;2022-11-15T04:56:54;7.80;;;4.90;;
4986;SDS011;12674;51.500;7.552;2022-11-15T04:59:16;5.53;;;4.47;;
4986;SDS011;12674;51.500;7.552;2022-11-15T05:01:39;7.20;;;4.80;;
4986;SDS011;12674;51.500;7.552;2022-11-15T05:04:04;5.17;;;3.93;;
4986;SDS011;12674;51.500;7.552;2022-11-15T05:06:39;4.63;;;4.17;;
4986;SDS011;12674;51.500;7.552;2022-11-15T05:09:01;6.33;;;4.40;;
4986;SDS011;12674;51.500;7.552;2022-11-15T05:11:23;6.10;;;4.67;;
4986;SDS011;12674;51.500;7.552;2022-11-15T05:13:44;5.10;;;4.40;;
4986;SDS011;12674;51.500;7.552;2022-11-15T05:16:06;5.83;;;4.63;;
4986;SDS011;12674;51.500;7.552;2022-11-15T05:18:29;5.20;;;3.90;;
4986;SDS011;12674;51.500;7.552;2022-11-15T05:20:50;5.53;;;4.40;;
4986;SDS011;12674;51.500;7.552;2022-11-15T05:23:12;5.00;;;3.93;;
4986;SDS011;12674;51.500;7.552;2022-11-15T05:25:35;4.43;;;4.03;;
4986;SDS011;12674;51.500;7.552;2022-11-15T05:27:57;10.47;;;4.57;;
4986;SDS011;12674;51.500;7.552;2022-11-15T05:30:18;10.60;;;4.40;;
4986;SDS011;12674;51.500;7.552;2022-11-15T05:32:40;5.07;;;4.20;;
4986;SDS011;12674;51.500;7.552;2022-11-15T05:35:03;6.33;;;4.33;;
4986;SDS011;12674;51.500;7.552;2022-11-15T05:37:26;6.70;;;4.50;;
4986;SDS011;12674;51.500;7.552;2022-11-15T05:39:49;4.73;;;4.33;;
4986;SDS011;12674;51.500;7.552;2022-11-15T05:42:13;7.80;;;4.20;;
4986;SDS011;12674;51.500;7.552;2022-11-15T05:44:35;7.90;;;4.10;;
4986;SDS011;12674;51.500;7.552;2022-11-15T05:46:57;7.07;;;4.97;;
4986;SDS011;12674;51.500;7.552;2022-11-15T05:49:20;5.37;;;4.20;;
4986;SDS011;12674;51.500;7.552;2022-11-15T05:51:44;5.20;;;3.87;;
4986;SDS011;12674;51.500;7.552;2022-11-15T05:54:06;5.93;;;4.60;;
4986;SDS011;12674;51.500;7.552;2022-11-15T05:56:28;4.87;;;3.90;;
4986;SDS011;12674;51.500;7.552;2022-11-15T05:58:51;5.03;;;4.47;;
4986;SDS011;12674;51.500;7.552;2022-11-15T06:01:18;3.80;;;3.43;;
4986;SDS011;12674;51.500;7.552;2022-11-15T06:03:40;3.60;;;3.30;;
4986;SDS011;12674;51.500;7.552;2022-11-15T06:06:02;4.40;;;3.60;;
4986;SDS011;12674;51.500;7.552;2022-11-15T06:08:25;5.60;;;3.70;;
4986;SDS011;12674;51.500;7.552;2022-11-15T06:10:47;6.50;;;3.90;;
4986;SDS011;12674;51.500;7.552;2022-11-15T06:13:08;5.27;;;3.50;;
4986;SDS011;12674;51.500;7.552;2022-11-15T06:15:31;6.87;;;3.60;;
4986;SDS011;12674;51.500;7.552;2022-11-15T06:17:55;13.37;;;3.73;;
4986;SDS011;12674;51.500;7.552;2022-11-15T06:20:18;12.17;;;4.20;;
4986;SDS011;12674;51.500;7.552;2022-11-15T06:22:39;7.77;;;3.80;;
4986;SDS011;12674;51.500;7.552;2022-11-15T06:25:02;4.70;;;3.50;;
4986;SDS011;12674;51.500;7.552;2022-11-15T06:27:24;3.83;;;3.50;;
4986;SDS011;12674;51.500;7.552;2022-11-15T06:29:46;5.50;;;3.53;;
4986;SDS011;12674;51.500;7.552;2022-11-15T06:32:08;3.40;;;3.10;;
4986;SDS011;12674;51.500;7.552;2022-11-15T06:34:30;3.60;;;3.30;;
4986;SDS011;12674;51.500;7.552;2022-11-15T06:36:51;4.27;;;2.73;;
4986;SDS011;12674;51.500;7.552;2022-11-15T06:39:13;4.10;;;3.23;;
4986;SDS011;12674;51.500;7.552;2022-11-15T06:41:35;3.70;;;2.77;;
4986;SDS011;12674;51.500;7.552;2022-11-15T06:43:57;4.47;;;3.00;;
4986;SDS011;12674;51.500;7.552;2022-11-15T06:46:19;6.20;;;3.10;;
4986;SDS011;12674;51.500;7.552;2022-11-15T06:48:40;3.40;;;3.10;;
4986;SDS011;12674;51.500;7.552;2022-11-15T06:51:03;8.40;;;2.97;;
4986;SDS011;12674;51.500;7.552;2022-11-15T06:53:25;2.83;;;2.53;;
4986;SDS011;12674;51.500;7.552;2022-11-15T06:55:48;7.00;;;2.60;;
4986;SDS011;12674;51.500;7.552;2022-11-15T06:58:16;4.13;;;2.63;;
4986;SDS011;12674;51.500;7.552;2022-11-15T07:00:37;4.30;;;2.53;;
4986;SDS011;12674;51.500;7.552;2022-11-15T07:02:59;2.20;;;2.10;;
4986;SDS011;12674;51.500;7.552;2022-11-15T07:05:21;6.20;;;3.10;;
4986;SDS011;12674;51.500;7.552;2022-11-15T07:07:42;3.50;;;2.70;;
4986;SDS011;12674;51.500;7.552;2022-11-15T07:10:05;3.60;;;2.37;;
4986;SDS011;12674;51.500;7.552;2022-11-15T07:12:27;10.20;;;2.13;;
4986;SDS011;12674;51.500;7.552;2022-11-15T07:14:50;6.30;;;2.33;;
4986;SDS011;12674;51.500;7.552;2022-11-15T07:17:12;4.97;;;2.03;;
4986;SDS011;12674;51.500;7.552;2022-11-15T07:19:33;5.43;;;1.90;;
4986;SDS011;12674;51.500;7.552;2022-11-15T07:21:55;1.83;;;1.70;;
4986;SDS011;12674;51.500;7.552;2022-11-15T07:24:17;6.57;;;2.23;;
4986;SDS011;12674;51.500;7.552;2022-11-15T07:26:39;2.80;;;2.20;;
4986;SDS011;12674;51.500;7.552;2022-11-15T07:29:00;1.87;;;1.77;;
4986;SDS011;12674;51.500;7.552;2022-11-15T07:31:23;4.97;;;2.03;;
4986;SDS011;12674;51.500;7.552;2022-11-15T07:33:45;4.13;;;1.80;;
4986;SDS011;12674;51.500;7.552;2022-11-15T07:36:07;2.00;;;1.63;;
4986;SDS011;12674;51.500;7.552;2022-11-15T07:42:11;1.93;;;1.73;;
4986;SDS011;12674;51.500;7.552;2022-11-15T07:44:50;3.27;;;1.47;;
4986;SDS011;12674;51.500;7.552;2022-11-15T07:47:13;2.20;;;1.70;;
4986;SDS011;12674;51.500;7.552;2022-11-15T07:49:34;7.57;;;1.97;;
4986;SDS011;12674;51.500;7.552;2022-11-15T07:51:56;3.80;;;1.90;;
4986;SDS011;12674;51.500;7.552;2022-11-15T07:54:17;2.73;;;1.60;;
4986;SDS011;12674;51.500;7.552;2022-11-15T07:56:39;5.20;;;1.83;;
4986;SDS011;12674;51.500;7.552;2022-11-15T07:59:01;2.13;;;1.63;;
4986;SDS011;12674;51.500;7.552;2022-11-15T08:01:22;2.37;;;1.90;;
4986;SDS011;12674;51.500;7.552;2022-11-15T08:03:46;3.57;;;1.60;;
4986;SDS011;12674;51.500;7.552;2022-11-15T08:06:08;5.20;;;1.70;;
4986;SDS011;12674;51.500;7.552;2022-11-15T08:08:31;2.97;;;1.77;;
4986;SDS011;12674;51.500;7.552;2022-11-15T08:10:53;2.97;;;1.77;;
4986;SDS011;12674;51.500;7.552;2022-11-15T08:13:14;1.93;;;1.60;;
4986;SDS011;12674;51.500;7.552;2022-11-15T08:15:37;2.90;;;1.70;;
4986;SDS011;12674;51.500;7.552;2022-11-15T08:17:59;1.73;;;1.53;;
4986;SDS011;12674;51.500;7.552;2022-11-15T08:20:24;3.83;;;1.80;;
4986;SDS011;12674;51.500;7.552;2022-11-15T08:22:46;7.63;;;1.67;;
4986;SDS011;12674;51.500;7.552;2022-11-15T08:25:08;7.57;;;2.17;;
4986;SDS011;12674;51.500;7.552;2022-11-15T08:27:29;2.40;;;1.27;;
4986;SDS011;12674;51.500;7.552;2022-11-15T08:29:53;2.47;;;1.97;;
4986;SDS011;12674;51.500;7.552;2022-11-15T08:32:18;3.40;;;1.40;;
4986;SDS011;12674;51.500;7.552;2022-11-15T08:34:40;1.40;;;1.20;;
4986;SDS011;12674;51.500;7.552;2022-11-15T08:37:03;2.20;;;1.60;;
4986;SDS011;12674;51.500;7.552;2022-11-15T08:39:25;1.93;;;1.20;;
4986;SDS011;12674;51.500;7.552;2022-11-15T08:41:46;4.90;;;1.27;;
4986;SDS011;12674;51.500;7.552;2022-11-15T08:44:08;1.40;;;1.00;;
4986;SDS011;12674;51.500;7.552;2022-11-15T08:46:29;5.03;;;1.40;;
4986;SDS011;12674;51.500;7.552;2022-11-15T08:48:51;6.97;;;1.30;;
4986;SDS011;12674;51.500;7.552;2022-11-15T08:51:15;2.83;;;1.50;;
4986;SDS011;12674;51.500;7.552;2022-11-15T08:53:37;1.67;;;1.30;;
4986;SDS011;12674;51.500;7.552;2022-11-15T08:55:59;7.83;;;1.43;;
4986;SDS011;12674;51.500;7.552;2022-11-15T08:58:22;1.77;;;1.20;;
4986;SDS011;12674;51.500;7.552;2022-11-15T09:00:44;3.07;;;1.07;;
4986;SDS011;12674;51.500;7.552;2022-11-15T09:03:06;4.07;;;1.10;;
4986;SDS011;12674;51.500;7.552;2022-11-15T09:05:30;3.93;;;1.70;;
4986;SDS011;12674;51.500;7.552;2022-11-15T09:07:52;4.00;;;1.10;;
4986;SDS011;12674;51.500;7.552;2022-11-15T09:10:16;1.43;;;1.23;;
4986;SDS011;12674;51.500;7.552;2022-11-15T09:12:37;1.02;;;0.93;;
4986;SDS011;12674;51.500;7.552;2022-11-15T09:14:59;1.13;;;1.02;;
4986;SDS011;12674;51.500;7.552;2022-11-15T09:17:21;12.65;;;1.40;;
4986;SDS011;12674;51.500;7.552;2022-11-15T09:19:44;2.63;;;1.38;;
4986;SDS011;12674;51.500;7.552;2022-11-15T09:22:06;7.97;;;1.48;;
4986;SDS011;12674;51.500;7.552;2022-11-15T09:24:27;1.52;;;1.00;;
4986;SDS011;12674;51.500;7.552;2022-11-15T09:26:50;1.33;;;1.10;;
4986;SDS011;12674;51.500;7.552;2022-11-15T09:29:13;4.82;;;1.20;;
4986;SDS011;12674;51.500;7.552;2022-11-15T09:31:34;2.65;;;1.20;;
4986;SDS011;12674;51.500;7.552;2022-11-15T09:33:56;2.45;;;1.38;;
4986;SDS011;12674;51.500;7.552;2022-11-15T09:36:18;0.90;;;0.90;;
4986;SDS011;12674;51.500;7.552;2022-11-15T09:38:40;2.40;;;1.25;;
4986;SDS011;12674;51.500;7.552;2022-11-15T09:41:13;3.10;;;0.90;;
4986;SDS011;12674;51.500;7.552;2022-11-15T09:44:02;3.03;;;1.10;;
4986;SDS011;12674;51.500;7.552;2022-11-15T09:46:33;3.40;;;1.50;;
4986;SDS011;12674;51.500;7.552;2022-11-15T09:49:06;1.33;;;0.98;;
4986;SDS011;12674;51.500;7.552;2022-11-15T09:51:32;6.18;;;1.23;;
4986;SDS011;12674;51.500;7.552;2022-11-15T09:53:36;1.90;;;1.00;;
4986;SDS011;12674;51.500;7.552;2022-11-15T09:56:05;1.55;;;1.10;;
4986;SDS011;12674;51.500;7.552;2022-11-15T09:58:18;1.73;;;1.00;;
4986;SDS011;12674;51.500;7.552;2022-11-15T10:00:29;1.45;;;0.93;;
4986;SDS011;12674;51.500;7.552;2022-11-15T10:02:56;2.35;;;1.27;;
4986;SDS011;12674;51.500;7.552;2022-11-15T10:05:06;3.17;;;1.02;;
4986;SDS011;12674;51.500;7.552;2022-11-15T10:07:13;5.53;;;1.30;;
4986;SDS011;12674;51.500;7.552;2022-11-15T10:09:21;2.00;;;1.05;;
4986;SDS011;12674;51.500;7.552;2022-11-15T10:11:28;2.13;;;1.45;;
4986;SDS011;12674;51.500;7.552;2022-11-15T10:13:40;2.25;;;1.05;;
4986;SDS011;12674;51.500;7.552;2022-11-15T10:15:46;2.30;;;1.42;;
4986;SDS011;12674;51.500;7.552;2022-11-15T10:20:17;0.90;;;0.80;;
4986;SDS011;12674;51.500;7.552;2022-11-15T10:22:27;0.98;;;0.93;;
4986;SDS011;12674;51.500;7.552;2022-11-15T10:24:34;6.87;;;1.10;;
4986;SDS011;12674;51.500;7.552;2022-11-15T10:26:45;2.67;;;1.20;;
4986;SDS011;12674;51.500;7.552;2022-11-15T10:28:49;1.65;;;0.90;;
4986;SDS011;12674;51.500;7.552;2022-11-15T10:30:54;1.58;;;0.93;;
4986;SDS011;12674;51.500;7.552;2022-11-15T10:33:11;8.88;;;1.02;;
4986;SDS011;12674;51.500;7.552;2022-11-15T10:35:16;3.33;;;1.20;;
4986;SDS011;12674;51.500;7.552;2022-11-15T10:37:27;1.42;;;1.00;;
4986;SDS011;12674;51.500;7.552;2022-11-15T10:39:31;1.45;;;1.10;;
4986;SDS011;12674;51.500;7.552;2022-11-15T10:41:36;1.60;;;0.98;;
4986;SDS011;12674;51.500;7.552;2022-11-15T10:43:43;1.02;;;0.80;;
4986;SDS011;12674;51.500;7.552;2022-11-15T10:45:46;2.38;;;1.30;;
4986;SDS011;12674;51.500;7.552;2022-11-15T10:47:51;2.90;;;1.08;;
4986;SDS011;12674;51.500;7.552;2022-11-15T10:49:58;2.33;;;1.23;;
4986;SDS011;12674;51.500;7.552;2022-11-15T10:52:04;3.40;;;1.20;;
4986;SDS011;12674;51.500;7.552;2022-11-15T10:54:28;2.63;;;1.10;;
4986;SDS011;12674;51.500;7.552;2022-11-15T10:56:33;4.28;;;1.20;;
4986;SDS011;12674;51.500;7.552;2022-11-15T10:58:37;1.90;;;1.15;;
4986;SDS011;12674;51.500;7.552;2022-11-15T11:00:41;6.78;;;1.30;;
4986;SDS011;12674;51.500;7.552;2022-11-15T11:02:45;10.20;;;1.70;;
4986;SDS011;12674;51.500;7.552;2022-11-15T11:05:00;2.28;;;1.25;;
4986;SDS011;12674;51.500;7.552;2022-11-15T11:07:08;10.50;;;1.00;;
4986;SDS011;12674;51.500;7.552;2022-11-15T11:09:28;1.20;;;1.02;;
4986;SDS011;12674;51.500;7.552;2022-11-15T11:11:43;3.65;;;1.33;;
4986;SDS011;12674;51.500;7.552;2022-11-15T11:13:47;4.05;;;1.20;;
4986;SDS011;12674;51.500;7.552;2022-11-15T11:15:52;1.00;;;0.82;;
4986;SDS011;12674;51.500;7.552;2022-11-15T11:18:01;1.48;;;0.90;;
4986;SDS011;12674;51.500;7.552;2022-11-15T11:20:14;3.38;;;1.20;;
4986;SDS011;12674;51.500;7.552;2022-11-15T11:22:23;5.10;;;1.00;;
4986;SDS011;12674;51.500;7.552;2022-11-15T11:24:32;3.67;;;1.02;;
4986;SDS011;12674;51.500;7.552;2022-11-15T11:26:40;2.08;;;0.80;;
4986;SDS011;12674;51.500;7.552;2022-11-15T11:28:47;1.60;;;1.08;;
4986;SDS011;12674;51.500;7.552;2022-11-15T11:31:00;4.15;;;1.27;;
4986;SDS011;12674;51.500;7.552;2022-11-15T11:33:09;2.38;;;1.02;;
4986;SDS011;12674;51.500;7.552;2022-11-15T11:35:18;2.65;;;1.08;;
4986;SDS011;12674;51.500;7.552;2022-11-15T11:37:24;1.25;;;0.93;;
4986;SDS011;12674;51.500;7.552;2022-11-15T11:39:34;3.90;;;1.13;;
4986;SDS011;12674;51.500;7.552;2022-11-15T11:41:53;1.90;;;0.75;;
4986;SDS011;12674;51.500;7.552;2022-11-15T11:44:02;3.40;;;1.13;;
4986;SDS011;12674;51.500;7.552;2022-11-15T11:46:20;3.42;;;1.05;;
4986;SDS011;12674;51.500;7.552;2022-11-15T11:48:34;1.17;;;1.00;;
4986;SDS011;12674;51.500;7.552;2022-11-15T11:50:44;2.85;;;1.05;;
4986;SDS011;12674;51.500;7.552;2022-11-15T11:52:52;1.98;;;1.00;;
4986;SDS011;12674;51.500;7.552;2022-11-15T11:55:05;4.45;;;1.02;;
4986;SDS011;12674;51.500;7.552;2022-11-15T11:57:18;2.25;;;1.02;;
4986;SDS011;12674;51.500;7.552;2022-11-15T11:59:28;1.40;;;0.95;;
4986;SDS011;12674;51.500;7.552;2022-11-15T12:01:36;0.80;;;0.70;;
4986;SDS011;12674;51.500;7.552;2022-11-15T12:03:41;2.80;;;1.23;;
4986;SDS011;12674;51.500;7.552;2022-11-15T12:05:49;2.00;;;1.10;;
4986;SDS011;12674;51.500;7.552;2022-11-15T12:07:54;2.60;;;1.38;;
4986;SDS011;12674;51.500;7.552;2022-11-15T12:10:08;1.40;;;0.90;;
4986;SDS011;12674;51.500;7.552;2022-11-15T12:12:19;1.52;;;0.70;;
4986;SDS011;12674;51.500;7.552;2022-11-15T12:14:29;3.35;;;0.75;;
4986;SDS011;12674;51.500;7.552;2022-11-15T12:16:35;1.23;;;1.00;;
4986;SDS011;12674;51.500;7.552;2022-11-15T12:18:40;4.07;;;1.00;;
4986;SDS011;12674;51.500;7.552;2022-11-15T12:20:51;13.07;;;1.30;;
4986;SDS011;12674;51.500;7.552;2022-11-15T12:22:59;2.38;;;0.98;;
4986;SDS011;12674;51.500;7.552;2022-11-15T12:25:08;3.13;;;0.70;;
4986;SDS011;12674;51.500;7.552;2022-11-15T12:27:17;2.45;;;0.70;;
4986;SDS011;12674;51.500;7.552;2022-11-15T12:29:29;1.85;;;0.82;;
4986;SDS011;12674;51.500;7.552;2022-11-15T12:31:36;3.95;;;1.38;;
4986;SDS011;12674;51.500;7.552;2022-11-15T12:33:41;2.88;;;0.98;;
4986;SDS011;12674;51.500;7.552;2022-11-15T12:35:56;3.53;;;1.02;;
4986;SDS011;12674;51.500;7.552;2022-11-15T12:38:02;1.13;;;0.70;;
4986;SDS011;12674;51.500;7.552;2022-11-15T12:40:19;0.80;;;0.70;;
4986;SDS011;12674;51.500;7.552;2022-11-15T12:42:39;1.38;;;1.00;;
4986;SDS011;12674;51.500;7.552;2022-11-15T12:44:56;2.88;;;0.80;;
4986;SDS011;12674;51.500;7.552;2022-11-15T12:47:02;7.25;;;0.90;;
4986;SDS011;12674;51.500;7.552;2022-11-15T12:49:09;2.25;;;1.13;;
4986;SDS011;12674;51.500;7.552;2022-11-15T12:51:14;4.95;;;1.05;;
4986;SDS011;12674;51.500;7.552;2022-11-15T12:53:26;2.90;;;1.15;;
4986;SDS011;12674;51.500;7.552;2022-11-15T12:55:30;2.25;;;0.90;;
4986;SDS011;12674;51.500;7.552;2022-11-15T12:57:35;1.33;;;1.02;;
4986;SDS011;12674;51.500;7.552;2022-11-15T12:59:49;1.70;;;1.00;;
4986;SDS011;12674;51.500;7.552;2022-11-15T13:01:59;4.60;;;0.77;;
4986;SDS011;12674;51.500;7.552;2022-11-15T13:04:12;1.67;;;0.93;;
4986;SDS011;12674;51.500;7.552;2022-11-15T13:08:48;6.53;;;1.08;;
4986;SDS011;12674;51.500;7.552;2022-11-15T13:10:52;2.58;;;1.20;;
4986;SDS011;12674;51.500;7.552;2022-11-15T13:12:56;4.57;;;1.13;;
4986;SDS011;12674;51.500;7.552;2022-11-15T13:15:00;3.58;;;0.90;;
4986;SDS011;12674;51.500;7.552;2022-11-15T13:17:09;1.90;;;1.00;;
4986;SDS011;12674;51.500;7.552;2022-11-15T13:19:18;6.57;;;0.98;;
4986;SDS011;12674;51.500;7.552;2022-11-15T13:21:24;1.55;;;1.05;;
4986;SDS011;12674;51.500;7.552;2022-11-15T13:23:46;2.63;;;1.10;;
4986;SDS011;12674;51.500;7.552;2022-11-15T13:26:01;5.80;;;1.00;;
4986;SDS011;12674;51.500;7.552;2022-11-15T13:28:11;1.27;;;0.82;;
4986;SDS011;12674;51.500;7.552;2022-11-15T13:30:21;3.58;;;1.08;;
4986;SDS011;12674;51.500;7.552;2022-11-15T13:32:25;7.13;;;1.42;;
4986;SDS011;12674;51.500;7.552;2022-11-15T13:34:31;2.53;;;1.17;;
4986;SDS011;12674;51.500;7.552;2022-11-15T13:36:52;2.83;;;1.00;;
4986;SDS011;12674;51.500;7.552;2022-11-15T13:41:44;3.55;;;1.30;;
4986;SDS011;12674;51.500;7.552;2022-11-15T13:43:48;2.33;;;1.20;;
4986;SDS011;12674;51.500;7.552;2022-11-15T13:46:03;2.33;;;1.20;;
4986;SDS011;12674;51.500;7.552;2022-11-15T13:48:21;10.02;;;1.20;;
4986;SDS011;12674;51.500;7.552;2022-11-15T13:50:25;5.70;;;1.02;;
4986;SDS011;12674;51.500;7.552;2022-11-15T13:52:31;2.35;;;1.08;;
4986;SDS011;12674;51.500;7.552;2022-11-15T13:54:38;4.72;;;1.35;;
4986;SDS011;12674;51.500;7.552;2022-11-15T13:56:47;6.63;;;1.17;;
4986;SDS011;12674;51.500;7.552;2022-11-15T13:58:51;5.80;;;1.52;;
4986;SDS011;12674;51.500;7.552;2022-11-15T14:00:59;5.75;;;1.42;;
4986;SDS011;12674;51.500;7.552;2022-11-15T14:03:05;3.88;;;0.90;;
4986;SDS011;12674;51.500;7.552;2022-11-15T14:05:14;3.45;;;1.13;;
4986;SDS011;12674;51.500;7.552;2022-11-15T14:07:19;3.55;;;1.27;;
4986;SDS011;12674;51.500;7.552;2022-11-15T14:09:30;6.35;;;1.10;;
4986;SDS011;12674;51.500;7.552;2022-11-15T14:11:39;2.33;;;0.95;;
4986;SDS011;12674;51.500;7.552;2022-11-15T14:14:04;4.43;;;1.38;;
4986;SDS011;12674;51.500;7.552;2022-11-15T14:16:18;13.30;;;1.50;;
4986;SDS011;12674;51.500;7.552;2022-11-15T14:18:42;5.05;;;1.42;;
4986;SDS011;12674;51.500;7.552;2022-11-15T14:20:47;3.50;;;1.50;;
4986;SDS011;12674;51.500;7.552;2022-11-15T14:22:51;1.77;;;1.05;;